sensor_id;sensor_type;location;lat;lon;timestamp;temperature;humidity
48686;DHT22;34485;51.536;3.816;2022-08-03T00:01:22;20.30;99.30
48686;DHT22;34485;51.536;3.816;2022-08-03T00:03:48;20.30;99.30
48686;DHT22;34485;51.536;3.816;2022-08-03T00:06:14;20.30;99.50
48686;DHT22;34485;51.536;3.816;2022-08-03T00:08:39;20.30;99.60
48686;DHT22;34485;51.536;3.816;2022-08-03T00:11:05;20.30;99.70
48686;DHT22;34485;51.536;3.816;2022-08-03T00:13:32;20.20;99.90
48686;DHT22;34485;51.536;3.816;2022-08-03T00:15:57;20.20;99.90
48686;DHT22;34485;51.536;3.816;2022-08-03T00:18:24;20.20;99.90
48686;DHT22;34485;51.536;3.816;2022-08-03T00:20:49;20.20;99.90
48686;DHT22;34485;51.536;3.816;2022-08-03T00:23:15;20.10;99.90
48686;DHT22;34485;51.536;3.816;2022-08-03T00:25:41;20.10;99.90
48686;DHT22;34485;51.536;3.816;2022-08-03T00:28:06;20.10;99.90
48686;DHT22;34485;51.536;3.816;2022-08-03T00:30:32;20.10;99.90
48686;DHT22;34485;51.536;3.816;2022-08-03T00:32:58;20.00;99.90
48686;DHT22;34485;51.536;3.816;2022-08-03T00:35:24;20.00;99.90
48686;DHT22;34485;51.536;3.816;2022-08-03T00:37:50;20.00;99.90
48686;DHT22;34485;51.536;3.816;2022-08-03T00:40:17;20.00;99.90
48686;DHT22;34485;51.536;3.816;2022-08-03T00:45:13;19.90;99.90
48686;DHT22;34485;51.536;3.816;2022-08-03T00:47:39;19.90;99.90
48686;DHT22;34485;51.536;3.816;2022-08-03T00:50:05;19.90;99.90
48686;DHT22;34485;51.536;3.816;2022-08-03T00:52:30;19.90;99.90
48686;DHT22;34485;51.536;3.816;2022-08-03T00:54:56;19.80;99.90
48686;DHT22;34485;51.536;3.816;2022-08-03T00:57:21;19.80;99.90
48686;DHT22;34485;51.536;3.816;2022-08-03T00:59:47;19.80;99.90
48686;DHT22;34485;51.536;3.816;2022-08-03T01:02:13;19.80;99.90
48686;DHT22;34485;51.536;3.816;2022-08-03T01:04:38;19.80;99.90
48686;DHT22;34485;51.536;3.816;2022-08-03T01:07:11;19.70;99.90
48686;DHT22;34485;51.536;3.816;2022-08-03T01:18:13;19.60;99.90
48686;DHT22;34485;51.536;3.816;2022-08-03T01:20:44;19.60;99.90
48686;DHT22;34485;51.536;3.816;2022-08-03T01:31:42;19.50;99.90
48686;DHT22;34485;51.536;3.816;2022-08-03T01:34:13;19.50;99.90
48686;DHT22;34485;51.536;3.816;2022-08-03T01:36:46;19.50;99.90
48686;DHT22;34485;51.536;3.816;2022-08-03T01:39:14;19.50;99.90
48686;DHT22;34485;51.536;3.816;2022-08-03T01:42:02;19.50;99.90
48686;DHT22;34485;51.536;3.816;2022-08-03T01:44:34;19.50;99.90
48686;DHT22;34485;51.536;3.816;2022-08-03T01:47:02;19.40;99.90
48686;DHT22;34485;51.536;3.816;2022-08-03T01:49:29;19.40;99.90
48686;DHT22;34485;51.536;3.816;2022-08-03T01:51:57;19.40;99.90
48686;DHT22;34485;51.536;3.816;2022-08-03T01:54:24;19.40;99.90
48686;DHT22;34485;51.536;3.816;2022-08-03T01:56:53;19.40;99.90
48686;DHT22;34485;51.536;3.816;2022-08-03T01:59:21;19.30;99.90
48686;DHT22;34485;51.536;3.816;2022-08-03T02:01:48;19.30;99.90
48686;DHT22;34485;51.536;3.816;2022-08-03T02:04:17;19.30;99.90
48686;DHT22;34485;51.536;3.816;2022-08-03T02:06:45;19.20;99.90
48686;DHT22;34485;51.536;3.816;2022-08-03T02:09:12;19.20;99.90
48686;DHT22;34485;51.536;3.816;2022-08-03T02:11:39;19.10;99.90
48686;DHT22;34485;51.536;3.816;2022-08-03T02:14:07;19.10;99.90
48686;DHT22;34485;51.536;3.816;2022-08-03T02:16:34;19.10;99.90
48686;DHT22;34485;51.536;3.816;2022-08-03T02:19:03;19.10;99.90
48686;DHT22;34485;51.536;3.816;2022-08-03T02:21:31;19.10;99.90
48686;DHT22;34485;51.536;3.816;2022-08-03T02:23:58;19.10;99.90
48686;DHT22;34485;51.536;3.816;2022-08-03T02:26:27;19.10;99.90
48686;DHT22;34485;51.536;3.816;2022-08-03T02:28:55;19.00;99.90
48686;DHT22;34485;51.536;3.816;2022-08-03T02:31:24;19.00;99.90
48686;DHT22;34485;51.536;3.816;2022-08-03T02:33:53;19.00;99.90
48686;DHT22;34485;51.536;3.816;2022-08-03T02:36:24;19.00;99.90
48686;DHT22;34485;51.536;3.816;2022-08-03T02:38:53;19.00;99.90
48686;DHT22;34485;51.536;3.816;2022-08-03T02:41:23;19.00;99.90
48686;DHT22;34485;51.536;3.816;2022-08-03T02:43:53;18.90;99.90
48686;DHT22;34485;51.536;3.816;2022-08-03T02:46:24;18.90;99.90
48686;DHT22;34485;51.536;3.816;2022-08-03T02:48:53;18.90;99.90
48686;DHT22;34485;51.536;3.816;2022-08-03T02:51:20;18.90;99.90
48686;DHT22;34485;51.536;3.816;2022-08-03T02:53:47;18.80;99.90
48686;DHT22;34485;51.536;3.816;2022-08-03T02:56:13;18.90;99.90
48686;DHT22;34485;51.536;3.816;2022-08-03T02:58:42;18.80;99.90
48686;DHT22;34485;51.536;3.816;2022-08-03T03:01:08;18.90;99.90
48686;DHT22;34485;51.536;3.816;2022-08-03T03:03:35;18.80;99.90
48686;DHT22;34485;51.536;3.816;2022-08-03T03:06:01;18.80;99.90
48686;DHT22;34485;51.536;3.816;2022-08-03T03:08:27;18.80;99.90
48686;DHT22;34485;51.536;3.816;2022-08-03T03:10:55;18.80;99.90
48686;DHT22;34485;51.536;3.816;2022-08-03T03:13:21;18.70;99.90
48686;DHT22;34485;51.536;3.816;2022-08-03T03:15:47;18.70;99.90
48686;DHT22;34485;51.536;3.816;2022-08-03T03:18:15;18.60;99.90
48686;DHT22;34485;51.536;3.816;2022-08-03T03:20:41;18.60;99.90
48686;DHT22;34485;51.536;3.816;2022-08-03T03:23:09;18.50;99.90
48686;DHT22;34485;51.536;3.816;2022-08-03T03:25:35;18.50;99.90
48686;DHT22;34485;51.536;3.816;2022-08-03T03:28:01;18.50;99.90
48686;DHT22;34485;51.536;3.816;2022-08-03T03:30:28;18.50;99.90
48686;DHT22;34485;51.536;3.816;2022-08-03T03:32:54;18.40;99.90
48686;DHT22;34485;51.536;3.816;2022-08-03T03:35:20;18.40;99.90
48686;DHT22;34485;51.536;3.816;2022-08-03T03:37:46;18.40;99.90
48686;DHT22;34485;51.536;3.816;2022-08-03T03:40:12;18.40;99.90
48686;DHT22;34485;51.536;3.816;2022-08-03T03:42:38;18.40;99.90
48686;DHT22;34485;51.536;3.816;2022-08-03T03:45:07;18.40;99.90
48686;DHT22;34485;51.536;3.816;2022-08-03T03:47:34;18.40;99.90
48686;DHT22;34485;51.536;3.816;2022-08-03T03:50:01;18.40;99.90
48686;DHT22;34485;51.536;3.816;2022-08-03T03:52:27;18.40;99.90
48686;DHT22;34485;51.536;3.816;2022-08-03T03:54:53;18.40;99.90
48686;DHT22;34485;51.536;3.816;2022-08-03T03:57:18;18.30;99.90
48686;DHT22;34485;51.536;3.816;2022-08-03T03:59:44;18.40;99.90
48686;DHT22;34485;51.536;3.816;2022-08-03T04:02:10;18.40;99.90
48686;DHT22;34485;51.536;3.816;2022-08-03T04:04:37;18.30;99.90
48686;DHT22;34485;51.536;3.816;2022-08-03T04:07:23;18.30;99.90
48686;DHT22;34485;51.536;3.816;2022-08-03T04:10:21;18.30;99.90
48686;DHT22;34485;51.536;3.816;2022-08-03T04:13:09;18.40;99.90
48686;DHT22;34485;51.536;3.816;2022-08-03T04:15:38;18.30;99.90
48686;DHT22;34485;51.536;3.816;2022-08-03T04:18:06;18.30;99.90
48686;DHT22;34485;51.536;3.816;2022-08-03T04:20:34;18.40;99.90
48686;DHT22;34485;51.536;3.816;2022-08-03T04:23:02;18.30;99.90
48686;DHT22;34485;51.536;3.816;2022-08-03T04:25:31;18.30;99.90
48686;DHT22;34485;51.536;3.816;2022-08-03T04:27:59;18.30;99.90
48686;DHT22;34485;51.536;3.816;2022-08-03T04:30:26;18.40;99.90
48686;DHT22;34485;51.536;3.816;2022-08-03T04:32:55;18.40;99.90
48686;DHT22;34485;51.536;3.816;2022-08-03T04:35:22;18.40;99.90
48686;DHT22;34485;51.536;3.816;2022-08-03T04:37:50;18.40;99.90
48686;DHT22;34485;51.536;3.816;2022-08-03T04:40:27;18.50;99.90
48686;DHT22;34485;51.536;3.816;2022-08-03T04:42:55;18.50;99.90
48686;DHT22;34485;51.536;3.816;2022-08-03T04:45:21;18.60;99.90
48686;DHT22;34485;51.536;3.816;2022-08-03T04:47:49;18.60;99.90
48686;DHT22;34485;51.536;3.816;2022-08-03T04:50:15;18.70;99.90
48686;DHT22;34485;51.536;3.816;2022-08-03T04:52:41;18.70;99.90
48686;DHT22;34485;51.536;3.816;2022-08-03T04:55:07;18.80;99.90
48686;DHT22;34485;51.536;3.816;2022-08-03T04:57:33;18.90;99.90
48686;DHT22;34485;51.536;3.816;2022-08-03T04:59:58;19.10;99.90
48686;DHT22;34485;51.536;3.816;2022-08-03T05:02:24;19.10;99.90
48686;DHT22;34485;51.536;3.816;2022-08-03T05:04:50;19.20;99.90
48686;DHT22;34485;51.536;3.816;2022-08-03T05:07:17;19.30;99.90
48686;DHT22;34485;51.536;3.816;2022-08-03T05:09:42;19.40;99.90
48686;DHT22;34485;51.536;3.816;2022-08-03T05:12:08;19.50;99.90
48686;DHT22;34485;51.536;3.816;2022-08-03T05:14:35;19.60;99.90
48686;DHT22;34485;51.536;3.816;2022-08-03T05:17:02;19.70;99.90
48686;DHT22;34485;51.536;3.816;2022-08-03T05:19:28;19.80;99.90
48686;DHT22;34485;51.536;3.816;2022-08-03T05:21:53;19.90;99.90
48686;DHT22;34485;51.536;3.816;2022-08-03T05:24:19;20.00;99.90
48686;DHT22;34485;51.536;3.816;2022-08-03T05:26:45;20.00;99.90
48686;DHT22;34485;51.536;3.816;2022-08-03T05:29:10;20.00;99.90
48686;DHT22;34485;51.536;3.816;2022-08-03T05:31:36;20.10;99.90
48686;DHT22;34485;51.536;3.816;2022-08-03T05:34:01;20.20;99.90
48686;DHT22;34485;51.536;3.816;2022-08-03T05:36:27;20.30;99.90
48686;DHT22;34485;51.536;3.816;2022-08-03T05:38:52;20.30;99.90
48686;DHT22;34485;51.536;3.816;2022-08-03T05:41:18;20.40;99.90
48686;DHT22;34485;51.536;3.816;2022-08-03T05:43:44;20.50;99.90
48686;DHT22;34485;51.536;3.816;2022-08-03T05:46:10;20.50;99.90
48686;DHT22;34485;51.536;3.816;2022-08-03T05:48:36;20.70;99.90
48686;DHT22;34485;51.536;3.816;2022-08-03T05:51:01;20.70;99.90
48686;DHT22;34485;51.536;3.816;2022-08-03T05:53:32;20.70;99.40
48686;DHT22;34485;51.536;3.816;2022-08-03T05:55:58;20.70;99.90
48686;DHT22;34485;51.536;3.816;2022-08-03T05:58:23;20.70;99.90
48686;DHT22;34485;51.536;3.816;2022-08-03T06:00:49;20.80;99.90
48686;DHT22;34485;51.536;3.816;2022-08-03T06:03:15;20.90;99.80
48686;DHT22;34485;51.536;3.816;2022-08-03T06:05:40;20.90;98.80
48686;DHT22;34485;51.536;3.816;2022-08-03T06:08:06;21.00;98.30
48686;DHT22;34485;51.536;3.816;2022-08-03T06:10:31;21.10;98.70
48686;DHT22;34485;51.536;3.816;2022-08-03T06:12:57;21.20;98.20
48686;DHT22;34485;51.536;3.816;2022-08-03T06:15:23;21.40;97.60
48686;DHT22;34485;51.536;3.816;2022-08-03T06:17:50;21.60;96.30
48686;DHT22;34485;51.536;3.816;2022-08-03T06:20:20;21.70;95.30
48686;DHT22;34485;51.536;3.816;2022-08-03T06:22:47;21.70;95.20
48686;DHT22;34485;51.536;3.816;2022-08-03T06:25:13;21.70;95.40
48686;DHT22;34485;51.536;3.816;2022-08-03T06:27:38;21.70;95.60
48686;DHT22;34485;51.536;3.816;2022-08-03T06:30:06;21.80;95.70
48686;DHT22;34485;51.536;3.816;2022-08-03T06:32:33;21.80;94.80
48686;DHT22;34485;51.536;3.816;2022-08-03T06:34:59;21.80;94.40
48686;DHT22;34485;51.536;3.816;2022-08-03T06:37:24;21.80;94.40
48686;DHT22;34485;51.536;3.816;2022-08-03T06:39:51;21.80;93.60
48686;DHT22;34485;51.536;3.816;2022-08-03T06:42:17;21.70;94.00
48686;DHT22;34485;51.536;3.816;2022-08-03T06:44:43;21.80;94.50
48686;DHT22;34485;51.536;3.816;2022-08-03T06:47:08;21.70;94.60
48686;DHT22;34485;51.536;3.816;2022-08-03T06:49:34;21.80;94.10
48686;DHT22;34485;51.536;3.816;2022-08-03T06:52:00;21.70;94.20
48686;DHT22;34485;51.536;3.816;2022-08-03T06:54:25;21.70;94.50
48686;DHT22;34485;51.536;3.816;2022-08-03T06:56:51;21.70;94.50
48686;DHT22;34485;51.536;3.816;2022-08-03T06:59:17;21.70;94.50
48686;DHT22;34485;51.536;3.816;2022-08-03T07:01:42;21.70;95.00
48686;DHT22;34485;51.536;3.816;2022-08-03T07:04:08;21.80;95.10
48686;DHT22;34485;51.536;3.816;2022-08-03T07:06:34;21.80;94.10
48686;DHT22;34485;51.536;3.816;2022-08-03T07:09:00;21.80;94.30
48686;DHT22;34485;51.536;3.816;2022-08-03T07:11:26;21.80;94.20
48686;DHT22;34485;51.536;3.816;2022-08-03T07:13:53;21.80;94.00
48686;DHT22;34485;51.536;3.816;2022-08-03T07:16:18;21.80;94.40
48686;DHT22;34485;51.536;3.816;2022-08-03T07:18:44;21.90;94.10
48686;DHT22;34485;51.536;3.816;2022-08-03T07:21:11;22.00;93.70
48686;DHT22;34485;51.536;3.816;2022-08-03T07:23:37;22.20;93.60
48686;DHT22;34485;51.536;3.816;2022-08-03T07:26:03;22.50;92.60
48686;DHT22;34485;51.536;3.816;2022-08-03T07:28:29;23.00;92.50
48686;DHT22;34485;51.536;3.816;2022-08-03T07:30:54;23.90;87.80
48686;DHT22;34485;51.536;3.816;2022-08-03T07:33:21;24.70;82.30
48686;DHT22;34485;51.536;3.816;2022-08-03T07:35:47;25.60;77.00
48686;DHT22;34485;51.536;3.816;2022-08-03T07:38:12;26.60;69.10
48686;DHT22;34485;51.536;3.816;2022-08-03T07:40:38;27.30;66.80
48686;DHT22;34485;51.536;3.816;2022-08-03T07:43:04;27.70;63.20
48686;DHT22;34485;51.536;3.816;2022-08-03T07:45:30;28.10;62.20
48686;DHT22;34485;51.536;3.816;2022-08-03T07:47:56;28.80;60.40
48686;DHT22;34485;51.536;3.816;2022-08-03T07:50:22;29.50;56.60
48686;DHT22;34485;51.536;3.816;2022-08-03T07:52:48;30.10;55.60
48686;DHT22;34485;51.536;3.816;2022-08-03T07:55:19;30.70;53.70
48686;DHT22;34485;51.536;3.816;2022-08-03T07:57:45;31.30;51.90
48686;DHT22;34485;51.536;3.816;2022-08-03T08:00:19;31.80;50.40
48686;DHT22;34485;51.536;3.816;2022-08-03T08:02:45;32.20;48.00
48686;DHT22;34485;51.536;3.816;2022-08-03T08:05:11;32.40;47.80
48686;DHT22;34485;51.536;3.816;2022-08-03T08:07:37;32.60;46.80
48686;DHT22;34485;51.536;3.816;2022-08-03T08:10:05;32.30;46.90
48686;DHT22;34485;51.536;3.816;2022-08-03T08:12:31;32.10;47.50
48686;DHT22;34485;51.536;3.816;2022-08-03T08:14:57;32.60;46.50
48686;DHT22;34485;51.536;3.816;2022-08-03T08:17:22;32.80;46.20
48686;DHT22;34485;51.536;3.816;2022-08-03T08:19:49;33.00;45.10
48686;DHT22;34485;51.536;3.816;2022-08-03T08:22:14;33.00;45.20
48686;DHT22;34485;51.536;3.816;2022-08-03T08:24:40;33.30;45.10
48686;DHT22;34485;51.536;3.816;2022-08-03T08:27:08;33.90;43.70
48686;DHT22;34485;51.536;3.816;2022-08-03T08:29:36;34.20;42.40
48686;DHT22;34485;51.536;3.816;2022-08-03T08:32:02;34.30;42.50
48686;DHT22;34485;51.536;3.816;2022-08-03T08:34:28;34.80;41.70
48686;DHT22;34485;51.536;3.816;2022-08-03T08:36:53;35.10;40.40
48686;DHT22;34485;51.536;3.816;2022-08-03T08:39:19;35.10;39.70
48686;DHT22;34485;51.536;3.816;2022-08-03T08:41:45;35.20;40.60
48686;DHT22;34485;51.536;3.816;2022-08-03T08:44:10;35.20;40.00
48686;DHT22;34485;51.536;3.816;2022-08-03T08:46:37;35.40;40.80
48686;DHT22;34485;51.536;3.816;2022-08-03T08:49:03;35.80;39.30
48686;DHT22;34485;51.536;3.816;2022-08-03T08:51:32;36.00;38.60
48686;DHT22;34485;51.536;3.816;2022-08-03T08:54:02;36.40;38.30
48686;DHT22;34485;51.536;3.816;2022-08-03T08:56:29;36.60;36.80
48686;DHT22;34485;51.536;3.816;2022-08-03T08:59:00;37.00;37.00
48686;DHT22;34485;51.536;3.816;2022-08-03T09:01:26;37.20;36.20
48686;DHT22;34485;51.536;3.816;2022-08-03T09:03:53;37.00;35.80
48686;DHT22;34485;51.536;3.816;2022-08-03T09:06:20;37.40;36.50
48686;DHT22;34485;51.536;3.816;2022-08-03T09:08:45;37.90;35.20
48686;DHT22;34485;51.536;3.816;2022-08-03T09:11:11;38.40;34.10
48686;DHT22;34485;51.536;3.816;2022-08-03T09:13:37;38.80;33.40
48686;DHT22;34485;51.536;3.816;2022-08-03T09:16:23;39.00;33.10
48686;DHT22;34485;51.536;3.816;2022-08-03T09:18:51;39.40;33.60
48686;DHT22;34485;51.536;3.816;2022-08-03T09:21:23;39.70;31.70
48686;DHT22;34485;51.536;3.816;2022-08-03T09:23:53;39.90;31.50
48686;DHT22;34485;51.536;3.816;2022-08-03T09:26:21;40.00;31.30
48686;DHT22;34485;51.536;3.816;2022-08-03T09:28:54;40.20;31.10
48686;DHT22;34485;51.536;3.816;2022-08-03T09:31:38;40.70;30.90
48686;DHT22;34485;51.536;3.816;2022-08-03T09:34:06;41.00;30.00
48686;DHT22;34485;51.536;3.816;2022-08-03T09:36:41;41.30;29.30
48686;DHT22;34485;51.536;3.816;2022-08-03T09:41:39;41.20;29.10
48686;DHT22;34485;51.536;3.816;2022-08-03T09:44:05;41.00;29.30
48686;DHT22;34485;51.536;3.816;2022-08-03T09:46:31;41.00;29.60
48686;DHT22;34485;51.536;3.816;2022-08-03T09:49:10;41.20;29.50
48686;DHT22;34485;51.536;3.816;2022-08-03T09:51:36;41.50;29.00
48686;DHT22;34485;51.536;3.816;2022-08-03T09:54:02;41.60;28.60
48686;DHT22;34485;51.536;3.816;2022-08-03T09:56:45;41.80;28.90
48686;DHT22;34485;51.536;3.816;2022-08-03T09:59:13;42.30;28.40
48686;DHT22;34485;51.536;3.816;2022-08-03T10:01:47;42.60;27.50
48686;DHT22;34485;51.536;3.816;2022-08-03T10:04:14;42.80;27.50
48686;DHT22;34485;51.536;3.816;2022-08-03T10:06:59;43.10;27.00
48686;DHT22;34485;51.536;3.816;2022-08-03T10:09:25;43.20;27.20
48686;DHT22;34485;51.536;3.816;2022-08-03T10:11:51;43.40;26.50
48686;DHT22;34485;51.536;3.816;2022-08-03T10:14:17;43.00;26.30
48686;DHT22;34485;51.536;3.816;2022-08-03T10:16:44;42.90;26.90
48686;DHT22;34485;51.536;3.816;2022-08-03T10:19:11;42.90;27.20
48686;DHT22;34485;51.536;3.816;2022-08-03T10:21:40;43.10;26.90
48686;DHT22;34485;51.536;3.816;2022-08-03T10:24:07;43.10;26.40
48686;DHT22;34485;51.536;3.816;2022-08-03T10:26:38;42.90;26.80
48686;DHT22;34485;51.536;3.816;2022-08-03T10:29:05;43.10;27.00
48686;DHT22;34485;51.536;3.816;2022-08-03T10:31:38;43.10;26.60
48686;DHT22;34485;51.536;3.816;2022-08-03T10:34:10;43.20;26.40
48686;DHT22;34485;51.536;3.816;2022-08-03T10:36:39;43.20;26.20
48686;DHT22;34485;51.536;3.816;2022-08-03T10:39:06;43.30;26.60
48686;DHT22;34485;51.536;3.816;2022-08-03T10:41:37;43.30;26.20
48686;DHT22;34485;51.536;3.816;2022-08-03T10:44:36;43.10;25.60
48686;DHT22;34485;51.536;3.816;2022-08-03T10:47:03;43.10;26.60
48686;DHT22;34485;51.536;3.816;2022-08-03T10:49:29;43.30;26.50
48686;DHT22;34485;51.536;3.816;2022-08-03T10:51:55;43.50;26.10
48686;DHT22;34485;51.536;3.816;2022-08-03T10:57:01;43.30;25.40
48686;DHT22;34485;51.536;3.816;2022-08-03T11:02:12;42.60;26.40
48686;DHT22;34485;51.536;3.816;2022-08-03T11:04:38;42.50;26.70
48686;DHT22;34485;51.536;3.816;2022-08-03T11:07:23;42.70;26.70
48686;DHT22;34485;51.536;3.816;2022-08-03T11:09:50;42.60;26.80
48686;DHT22;34485;51.536;3.816;2022-08-03T11:12:30;42.70;26.80
48686;DHT22;34485;51.536;3.816;2022-08-03T11:15:04;42.80;26.10
48686;DHT22;34485;51.536;3.816;2022-08-03T11:17:31;42.60;26.10
48686;DHT22;34485;51.536;3.816;2022-08-03T11:19:57;42.60;26.50
48686;DHT22;34485;51.536;3.816;2022-08-03T11:22:23;42.40;26.90
48686;DHT22;34485;51.536;3.816;2022-08-03T11:46:05;41.60;28.00
48686;DHT22;34485;51.536;3.816;2022-08-03T11:48:45;41.20;28.20
48686;DHT22;34485;51.536;3.816;2022-08-03T11:51:27;40.60;29.10
48686;DHT22;34485;51.536;3.816;2022-08-03T11:53:58;40.20;30.00
48686;DHT22;34485;51.536;3.816;2022-08-03T11:56:25;39.90;29.60
48686;DHT22;34485;51.536;3.816;2022-08-03T11:58:52;39.40;30.10
48686;DHT22;34485;51.536;3.816;2022-08-03T12:01:19;38.90;31.60
48686;DHT22;34485;51.536;3.816;2022-08-03T12:03:45;38.50;33.10
48686;DHT22;34485;51.536;3.816;2022-08-03T12:06:13;38.20;32.20
48686;DHT22;34485;51.536;3.816;2022-08-03T12:08:40;37.80;32.80
48686;DHT22;34485;51.536;3.816;2022-08-03T12:11:08;37.30;32.80
48686;DHT22;34485;51.536;3.816;2022-08-03T12:13:45;36.90;34.30
48686;DHT22;34485;51.536;3.816;2022-08-03T12:16:22;36.60;35.30
48686;DHT22;34485;51.536;3.816;2022-08-03T12:19:04;36.30;35.50
48686;DHT22;34485;51.536;3.816;2022-08-03T12:21:31;36.10;35.70
48686;DHT22;34485;51.536;3.816;2022-08-03T12:24:01;35.90;37.10
48686;DHT22;34485;51.536;3.816;2022-08-03T12:26:28;35.60;36.50
48686;DHT22;34485;51.536;3.816;2022-08-03T12:28:54;35.50;37.50
48686;DHT22;34485;51.536;3.816;2022-08-03T12:31:20;35.50;37.20
48686;DHT22;34485;51.536;3.816;2022-08-03T12:34:04;35.50;37.80
48686;DHT22;34485;51.536;3.816;2022-08-03T12:36:34;35.60;37.80
48686;DHT22;34485;51.536;3.816;2022-08-03T12:39:05;35.60;37.20
48686;DHT22;34485;51.536;3.816;2022-08-03T12:41:36;35.60;37.40
48686;DHT22;34485;51.536;3.816;2022-08-03T12:44:04;35.50;37.80
48686;DHT22;34485;51.536;3.816;2022-08-03T12:46:33;35.40;37.60
48686;DHT22;34485;51.536;3.816;2022-08-03T12:49:12;35.30;37.60
48686;DHT22;34485;51.536;3.816;2022-08-03T12:54:18;35.10;39.70
48686;DHT22;34485;51.536;3.816;2022-08-03T12:57:04;35.20;38.50
48686;DHT22;34485;51.536;3.816;2022-08-03T12:59:32;35.10;38.70
48686;DHT22;34485;51.536;3.816;2022-08-03T13:01:58;35.10;38.80
48686;DHT22;34485;51.536;3.816;2022-08-03T13:04:25;35.00;38.80
48686;DHT22;34485;51.536;3.816;2022-08-03T13:07:02;34.90;38.90
48686;DHT22;34485;51.536;3.816;2022-08-03T13:09:29;34.80;39.00
48686;DHT22;34485;51.536;3.816;2022-08-03T13:12:13;34.70;39.60
48686;DHT22;34485;51.536;3.816;2022-08-03T13:14:40;34.60;40.10
48686;DHT22;34485;51.536;3.816;2022-08-03T13:17:06;34.50;39.90
48686;DHT22;34485;51.536;3.816;2022-08-03T13:19:35;34.50;39.90
48686;DHT22;34485;51.536;3.816;2022-08-03T13:22:10;34.50;39.90
48686;DHT22;34485;51.536;3.816;2022-08-03T13:24:37;34.40;40.10
48686;DHT22;34485;51.536;3.816;2022-08-03T13:27:02;34.40;39.80
48686;DHT22;34485;51.536;3.816;2022-08-03T13:29:30;34.40;40.10
48686;DHT22;34485;51.536;3.816;2022-08-03T13:31:56;34.30;39.90
48686;DHT22;34485;51.536;3.816;2022-08-03T13:34:22;34.30;39.80
48686;DHT22;34485;51.536;3.816;2022-08-03T13:36:47;34.20;39.90
48686;DHT22;34485;51.536;3.816;2022-08-03T13:39:13;34.10;40.00
48686;DHT22;34485;51.536;3.816;2022-08-03T13:41:39;34.10;40.60
48686;DHT22;34485;51.536;3.816;2022-08-03T13:44:04;34.10;40.90
48686;DHT22;34485;51.536;3.816;2022-08-03T13:46:30;34.10;40.70
48686;DHT22;34485;51.536;3.816;2022-08-03T13:48:55;34.00;39.90
48686;DHT22;34485;51.536;3.816;2022-08-03T13:51:21;34.00;39.90
48686;DHT22;34485;51.536;3.816;2022-08-03T13:53:46;33.90;40.70
48686;DHT22;34485;51.536;3.816;2022-08-03T13:56:12;33.80;40.80
48686;DHT22;34485;51.536;3.816;2022-08-03T13:58:38;33.80;40.40
48686;DHT22;34485;51.536;3.816;2022-08-03T14:01:03;33.70;41.00
48686;DHT22;34485;51.536;3.816;2022-08-03T14:03:29;33.70;41.10
48686;DHT22;34485;51.536;3.816;2022-08-03T14:05:54;33.60;41.10
48686;DHT22;34485;51.536;3.816;2022-08-03T14:08:20;33.50;41.00
48686;DHT22;34485;51.536;3.816;2022-08-03T14:10:45;33.50;41.30
48686;DHT22;34485;51.536;3.816;2022-08-03T14:13:12;33.40;41.40
48686;DHT22;34485;51.536;3.816;2022-08-03T14:15:40;33.30;41.80
48686;DHT22;34485;51.536;3.816;2022-08-03T14:18:07;33.30;41.50
48686;DHT22;34485;51.536;3.816;2022-08-03T14:20:32;33.30;42.10
48686;DHT22;34485;51.536;3.816;2022-08-03T14:22:58;33.20;42.00
48686;DHT22;34485;51.536;3.816;2022-08-03T14:25:24;33.30;42.20
48686;DHT22;34485;51.536;3.816;2022-08-03T14:27:49;33.20;42.70
48686;DHT22;34485;51.536;3.816;2022-08-03T14:30:15;33.10;42.70
48686;DHT22;34485;51.536;3.816;2022-08-03T14:32:41;33.10;42.50
48686;DHT22;34485;51.536;3.816;2022-08-03T14:35:07;33.10;42.60
48686;DHT22;34485;51.536;3.816;2022-08-03T14:37:33;33.00;42.70
48686;DHT22;34485;51.536;3.816;2022-08-03T14:39:59;33.00;43.40
48686;DHT22;34485;51.536;3.816;2022-08-03T14:42:24;32.90;43.50
48686;DHT22;34485;51.536;3.816;2022-08-03T14:44:50;32.80;43.60
48686;DHT22;34485;51.536;3.816;2022-08-03T14:47:15;32.70;43.70
48686;DHT22;34485;51.536;3.816;2022-08-03T14:49:41;32.60;43.80
48686;DHT22;34485;51.536;3.816;2022-08-03T14:52:07;32.50;44.00
48686;DHT22;34485;51.536;3.816;2022-08-03T14:54:33;32.40;44.30
48686;DHT22;34485;51.536;3.816;2022-08-03T14:56:59;32.30;44.50
48686;DHT22;34485;51.536;3.816;2022-08-03T14:59:25;32.30;45.20
48686;DHT22;34485;51.536;3.816;2022-08-03T15:01:51;32.20;44.70
48686;DHT22;34485;51.536;3.816;2022-08-03T15:04:17;32.10;44.60
48686;DHT22;34485;51.536;3.816;2022-08-03T15:06:43;32.00;45.10
48686;DHT22;34485;51.536;3.816;2022-08-03T15:09:08;31.90;45.30
48686;DHT22;34485;51.536;3.816;2022-08-03T15:11:34;31.90;45.60
48686;DHT22;34485;51.536;3.816;2022-08-03T15:14:00;31.80;45.90
48686;DHT22;34485;51.536;3.816;2022-08-03T15:16:26;31.80;45.80
48686;DHT22;34485;51.536;3.816;2022-08-03T15:18:52;31.70;46.00
48686;DHT22;34485;51.536;3.816;2022-08-03T15:21:17;31.70;46.50
48686;DHT22;34485;51.536;3.816;2022-08-03T15:23:43;31.60;46.10
48686;DHT22;34485;51.536;3.816;2022-08-03T15:26:09;31.70;46.30
48686;DHT22;34485;51.536;3.816;2022-08-03T15:28:34;31.60;46.40
48686;DHT22;34485;51.536;3.816;2022-08-03T15:31:00;31.60;46.40
48686;DHT22;34485;51.536;3.816;2022-08-03T15:33:26;31.60;46.50
48686;DHT22;34485;51.536;3.816;2022-08-03T15:35:52;31.50;46.70
48686;DHT22;34485;51.536;3.816;2022-08-03T15:38:18;31.50;47.40
48686;DHT22;34485;51.536;3.816;2022-08-03T15:40:44;31.40;46.70
48686;DHT22;34485;51.536;3.816;2022-08-03T15:43:10;31.40;46.80
48686;DHT22;34485;51.536;3.816;2022-08-03T15:45:36;31.40;47.10
48686;DHT22;34485;51.536;3.816;2022-08-03T15:48:02;31.40;47.20
48686;DHT22;34485;51.536;3.816;2022-08-03T15:50:27;31.40;47.00
48686;DHT22;34485;51.536;3.816;2022-08-03T15:52:55;31.40;47.30
48686;DHT22;34485;51.536;3.816;2022-08-03T15:55:20;31.40;47.10
48686;DHT22;34485;51.536;3.816;2022-08-03T15:57:46;31.30;47.20
48686;DHT22;34485;51.536;3.816;2022-08-03T16:00:12;31.30;47.40
48686;DHT22;34485;51.536;3.816;2022-08-03T16:02:38;31.30;47.40
48686;DHT22;34485;51.536;3.816;2022-08-03T16:05:04;31.20;47.80
48686;DHT22;34485;51.536;3.816;2022-08-03T16:07:30;31.10;47.80
48686;DHT22;34485;51.536;3.816;2022-08-03T16:10:12;31.10;48.30
48686;DHT22;34485;51.536;3.816;2022-08-03T16:12:38;31.10;48.10
48686;DHT22;34485;51.536;3.816;2022-08-03T16:15:04;31.10;48.00
48686;DHT22;34485;51.536;3.816;2022-08-03T16:17:30;31.10;48.10
48686;DHT22;34485;51.536;3.816;2022-08-03T16:19:56;31.10;49.00
48686;DHT22;34485;51.536;3.816;2022-08-03T16:22:23;31.00;48.10
48686;DHT22;34485;51.536;3.816;2022-08-03T16:24:49;31.10;48.20